KEVW

Evanston-Uinta County Burns Field Airport

Evanston, Wyoming, USA
METAR KEVW 201953Z AUTO 21016G23KT 10SM FEW080 BKN100 25/03 A3019 RMK AO2 PK WND 24032/1900 SLP124 T02500033
Observed Flight Rules
Aug-20 @ 19:53 UTC (38 minutes ago) Visual Flight Rules
Wind Visibility Clouds
210° at 16 knots
 Gusting to 23 knots
10 miles
  • Few at 8,000' AGL
  • Broken at 10,000' AGL
Temperatures Readings
Current 25°C / 77°F
Dewpoint 3°C / 37°F
Humidity 24%
Altimeter 30.19" Hg
Pressure 1012.4 hPa
Elevation 2177
METAR KEVW 201953Z AUTO 21016G23KT 10SM FEW080 BKN100 25/03 A3019 RMK AO2 PK WND 24032/1900 SLP124 T02500033
Observed Flight Rules
Aug-20 @ 19:53 UTC
(38 minutes ago)
VFR
Wind Visibility
210° at 16 knots
 Gusting to 23 knots
10 miles
Clouds
  • Few at 8,000' AGL
  • Broken at 10,000' AGL
Temperature Dewpoint
25°C / 77°F 3°C / 37°F
Humidity Altimeter Pressure
24% 30.19" Hg 1012.4 hPa